Time;durP1;ratioP1;P1;durP2;ratioP2;P2;SDS_P1;SDS_P2;PMS_P1;PMS_P2;Temp;Humidity;BMP_temperature;BMP_pressure;BME280_temperature;BME280_humidity;BME280_pressure;Samples;Min_cycle;Max_cycle;Signal;HPM_P1;HPM_P2
2024/03/31 00:00:01;;;;;;;15.75;5.85;;;12.50;99.90;;;;;;4932294;29;20308;-87
2024/03/31 00:02:27;;;;;;;11.93;6.38;;;11.30;99.90;;;;;;4936227;29;20681;-88
2024/03/31 00:04:53;;;;;;;16.03;6.37;;;;;;;;;;4933321;29;20196;-88
2024/03/31 00:07:19;;;;;;;16.65;5.72;;;10.90;99.90;;;;;;4935824;29;20223;-88
2024/03/31 00:09:48;;;;;;;14.35;4.57;;;11.20;99.90;;;;;;4939058;29;20219;-88
2024/03/31 00:12:14;;;;;;;17.60;5.57;;;10.80;99.90;;;;;;4938755;29;20697;-88
2024/03/31 00:14:40;;;;;;;10.40;4.35;;;13.50;99.90;;;;;;4937099;29;20189;-88
2024/03/31 00:17:06;;;;;;;12.70;5.93;;;;;;;;;;4938848;28;20331;-89
2024/03/31 00:19:32;;;;;;;16.40;4.73;;;;;;;;;;4936967;29;20193;-89
2024/03/31 00:21:58;;;;;;;13.00;4.37;;;11.70;99.90;;;;;;4948910;28;20436;-88
2024/03/31 00:24:25;;;;;;;16.55;5.38;;;12.40;99.90;;;;;;4932901;28;20455;-90
2024/03/31 00:26:52;;;;;;;17.20;5.65;;;10.80;99.90;;;;;;4932691;29;20223;-89
2024/03/31 00:29:17;;;;;;;11.40;4.10;;;12.90;99.90;;;;;;4938468;28;20185;-90
2024/03/31 00:31:44;;;;;;;12.40;3.70;;;11.80;99.90;;;;;;4936874;28;20681;-89
2024/03/31 00:34:10;;;;;;;21.40;4.75;;;12.20;99.90;;;;;;4936418;28;20574;-89
2024/03/31 00:36:35;;;;;;;8.97;4.30;;;11.90;99.90;;;;;;4938771;29;20299;-89
2024/03/31 00:39:01;;;;;;;15.13;4.10;;;11.30;99.90;;;;;;4936090;28;20262;-87
2024/03/31 00:41:27;;;;;;;10.93;4.40;;;11.70;99.90;;;;;;4934449;29;20188;-88
2024/03/31 00:43:52;;;;;;;11.73;4.57;;;13.00;99.90;;;;;;4933824;28;20221;-88
2024/03/31 00:46:18;;;;;;;15.90;4.60;;;12.00;99.90;;;;;;4938650;28;20589;-88
2024/03/31 00:48:44;;;;;;;8.90;4.33;;;;;;;;;;4940403;28;20189;-88
2024/03/31 00:51:09;;;;;;;11.23;3.70;;;11.60;99.90;;;;;;4936920;28;20184;-89
2024/03/31 00:53:35;;;;;;;14.60;5.03;;;;;;;;;;4935361;28;20818;-89
2024/03/31 00:56:01;;;;;;;11.03;4.10;;;;;;;;;;4933162;29;20215;-89
2024/03/31 00:58:28;;;;;;;11.93;4.65;;;11.80;99.90;;;;;;4936701;29;20991;-89
2024/03/31 01:00:54;;;;;;;24.38;10.23;;;13.40;99.90;;;;;;4935274;28;20192;-89
2024/03/31 01:03:27;;;;;;;13.88;4.60;;;12.60;99.90;;;;;;4929371;29;20200;-89
2024/03/31 01:05:53;;;;;;;15.15;4.10;;;13.50;99.90;;;;;;4958179;28;20216;-89
2024/03/31 01:08:19;;;;;;;8.02;3.60;;;11.40;99.90;;;;;;4950329;28;20665;-90
2024/03/31 01:10:47;;;;;;;14.73;4.50;;;13.00;99.90;;;;;;4938437;28;20192;-89
2024/03/31 01:13:14;;;;;;;13.25;4.45;;;11.40;99.90;;;;;;4935766;28;20248;-88
2024/03/31 01:15:39;;;;;;;15.45;4.25;;;11.30;99.90;;;;;;4933615;29;20195;-89
2024/03/31 01:18:05;;;;;;;12.67;4.90;;;15.00;99.90;;;;;;4937452;28;20185;-89
2024/03/31 01:20:31;;;;;;;11.17;3.97;;;13.30;99.90;;;;;;4940227;29;20188;-88
2024/03/31 01:22:57;;;;;;;9.30;3.37;;;12.20;99.90;;;;;;4933207;28;20274;-88
2024/03/31 01:25:23;;;;;;;12.75;4.65;;;12.80;99.90;;;;;;4936082;29;20227;-89
2024/03/31 01:27:48;;;;;;;10.63;3.87;;;12.50;99.90;;;;;;4936321;28;20244;-88
2024/03/31 01:30:14;;;;;;;11.23;3.30;;;13.90;99.90;;;;;;4933079;28;20965;-88
2024/03/31 01:32:40;;;;;;;12.70;3.60;;;12.10;99.90;;;;;;4935993;28;20181;-89
2024/03/31 01:35:05;;;;;;;11.98;3.97;;;11.70;99.90;;;;;;4939334;29;20189;-88
2024/03/31 01:37:31;;;;;;;13.60;4.43;;;12.00;99.90;;;;;;4936357;28;20532;-89
2024/03/31 01:39:58;;;;;;;12.90;4.70;;;;;;;;;;4933755;29;20199;-88
2024/03/31 01:42:27;;;;;;;14.40;3.70;;;12.00;99.90;;;;;;4951586;28;20190;-88
2024/03/31 01:44:52;;;;;;;9.30;3.75;;;11.90;99.90;;;;;;4933490;29;20185;-89
2024/03/31 01:47:18;;;;;;;16.47;4.53;;;11.60;99.90;;;;;;4937133;28;20208;-88
2024/03/31 01:49:44;;;;;;;10.77;3.43;;;;;;;;;;4938270;29;20228;-88
2024/03/31 01:52:09;;;;;;;7.20;3.67;;;11.90;99.90;;;;;;4935953;28;20539;-89
2024/03/31 01:54:37;;;;;;;12.10;4.03;;;12.40;99.90;;;;;;4935819;29;20808;-89
2024/03/31 01:57:03;;;;;;;8.55;3.60;;;12.70;99.90;;;;;;4935581;28;20218;-89
2024/03/31 01:59:29;;;;;;;12.73;4.18;;;12.20;99.90;;;;;;4934053;29;20246;-88
2024/03/31 02:01:55;;;;;;;7.60;4.03;;;11.50;99.90;;;;;;4934957;28;20219;-88
2024/03/31 02:04:20;;;;;;;11.57;3.97;;;12.20;99.90;;;;;;4938869;29;20189;-89
2024/03/31 02:06:46;;;;;;;11.17;4.90;;;12.20;99.90;;;;;;4935952;29;20636;-88
2024/03/31 02:09:12;;;;;;;16.00;4.13;;;;;;;;;;4932112;28;20453;-89
2024/03/31 02:11:37;;;;;;;9.20;4.30;;;12.00;99.90;;;;;;4952979;28;20572;-89
2024/03/31 02:14:03;;;;;;;11.10;4.00;;;13.10;99.90;;;;;;4934105;28;20459;-88
2024/03/31 02:16:29;;;;;;;13.73;3.80;;;;;;;;;;4935685;29;20660;-89
2024/03/31 02:18:55;;;;;;;10.13;3.65;;;12.10;99.90;;;;;;4949277;28;20668;-88
2024/03/31 02:21:20;;;;;;;13.70;4.13;;;12.00;99.90;;;;;;4934791;29;20196;-88
2024/03/31 02:23:46;;;;;;;11.90;4.27;;;12.30;99.90;;;;;;4937178;29;20278;-88
2024/03/31 02:26:11;;;;;;;16.20;4.20;;;14.40;99.90;;;;;;4936229;28;20299;-88
2024/03/31 02:28:37;;;;;;;10.93;3.50;;;;;;;;;;4935987;29;20216;-88
2024/03/31 02:31:03;;;;;;;13.80;3.55;;;12.00;99.90;;;;;;4933522;28;20203;-88
2024/03/31 02:33:29;;;;;;;17.23;3.90;;;12.90;99.90;;;;;;4934814;29;20184;-88
2024/03/31 02:35:54;;;;;;;16.60;4.07;;;11.70;99.90;;;;;;4935190;28;20299;-88
2024/03/31 02:38:20;;;;;;;11.77;4.37;;;13.40;99.90;;;;;;4933857;28;20284;-88
2024/03/31 02:40:45;;;;;;;11.80;3.93;;;13.30;99.90;;;;;;4936909;28;20274;-88
2024/03/31 02:43:12;;;;;;;10.50;3.80;;;12.50;99.90;;;;;;4934056;29;20199;-88
2024/03/31 02:45:37;;;;;;;12.45;3.88;;;14.10;99.90;;;;;;4932979;29;20184;-89
2024/03/31 02:48:03;;;;;;;16.20;4.27;;;14.90;99.90;;;;;;4934150;29;20216;-88
2024/03/31 02:50:30;;;;;;;18.05;3.80;;;11.60;99.90;;;;;;4932113;29;20235;-88
2024/03/31 02:52:56;;;;;;;12.77;4.18;;;11.50;99.90;;;;;;4933280;29;20586;-89
2024/03/31 02:55:22;;;;;;;9.57;3.50;;;10.50;99.90;;;;;;4933406;28;20215;-89
2024/03/31 02:57:48;;;;;;;18.80;4.30;;;;;;;;;;4935369;28;20463;-89
2024/03/31 03:00:16;;;;;;;9.88;3.10;;;11.50;99.90;;;;;;4931342;28;21358;-87
2024/03/31 03:02:41;;;;;;;13.00;3.38;;;11.60;99.90;;;;;;4935845;29;20188;-89
2024/03/31 03:05:08;;;;;;;16.43;3.10;;;11.80;99.90;;;;;;4936887;28;20188;-88
2024/03/31 03:07:33;;;;;;;18.30;3.45;;;11.90;99.90;;;;;;4950082;28;20578;-89
2024/03/31 03:09:59;;;;;;;12.03;3.57;;;12.00;99.90;;;;;;4937647;28;20200;-89
2024/03/31 03:12:24;;;;;;;9.93;3.30;;;12.40;99.90;;;;;;4940522;29;20184;-89
2024/03/31 03:14:54;;;;;;;15.97;3.83;;;13.20;99.90;;;;;;4939624;28;20587;-89
2024/03/31 03:17:20;;;;;;;13.73;3.72;;;11.50;99.90;;;;;;4937132;29;20203;-89
2024/03/31 03:19:45;;;;;;;10.32;3.92;;;10.60;99.90;;;;;;4939179;28;20914;-89
2024/03/31 03:22:11;;;;;;;11.83;3.57;;;;;;;;;;4936799;29;20219;-90
2024/03/31 03:24:37;;;;;;;9.68;4.10;;;11.40;99.90;;;;;;4938615;28;20546;-89
2024/03/31 03:27:04;;;;;;;16.60;4.37;;;12.50;99.90;;;;;;4936028;29;20303;-89
2024/03/31 03:29:29;;;;;;;12.38;3.88;;;11.90;99.90;;;;;;4936682;29;20431;-89
2024/03/31 03:31:55;;;;;;;12.80;3.50;;;12.50;99.90;;;;;;4938748;29;20414;-89
2024/03/31 03:34:23;;;;;;;9.70;3.33;;;12.30;99.90;;;;;;4939647;28;20570;-89
2024/03/31 03:36:48;;;;;;;11.73;3.53;;;9.70;99.90;;;;;;4936413;29;20682;-89
2024/03/31 03:39:17;;;;;;;9.43;2.97;;;10.20;99.90;;;;;;4936321;28;20192;-89
2024/03/31 03:41:44;;;;;;;9.20;3.30;;;9.90;99.90;;;;;;4937493;28;20197;-89
2024/03/31 03:44:10;;;;;;;9.07;3.15;;;11.10;99.90;;;;;;4932341;28;20192;-93
2024/03/31 03:46:35;;;;;;;9.77;5.00;;;11.90;99.90;;;;;;4944715;29;20219;-92
2024/03/31 03:49:01;;;;;;;13.63;4.00;;;13.00;99.90;;;;;;4943223;29;20425;-93
2024/03/31 03:51:27;;;;;;;13.47;4.67;;;;;;;;;;4943753;29;20187;-93
2024/03/31 03:53:53;;;;;;;14.68;4.20;;;10.60;99.90;;;;;;4962699;28;20199;-92
2024/03/31 03:56:18;;;;;;;6.38;3.97;;;11.70;99.90;;;;;;4948667;29;20211;-91
2024/03/31 03:58:45;;;;;;;13.17;4.57;;;;;;;;;;4948343;29;20865;-91
2024/03/31 04:01:13;;;;;;;8.15;3.42;;;10.70;99.90;;;;;;4964917;28;20254;-92
2024/03/31 04:03:39;;;;;;;10.20;3.95;;;9.90;99.90;;;;;;4954091;29;20191;-92
2024/03/31 04:06:05;;;;;;;15.37;4.80;;;12.70;99.90;;;;;;4954451;28;20211;-92
2024/03/31 04:08:31;;;;;;;16.13;5.60;;;11.70;99.90;;;;;;4952752;29;20207;-92
2024/03/31 04:10:56;;;;;;;12.00;4.60;;;12.00;99.90;;;;;;4955240;28;20216;-92
2024/03/31 04:13:22;;;;;;;14.10;5.10;;;11.50;99.90;;;;;;4963134;28;20208;-92
2024/03/31 04:16:00;;;;;;;16.63;5.10;;;10.40;99.90;;;;;;4960457;28;20673;-92
2024/03/31 04:18:26;;;;;;;10.88;4.03;;;10.90;99.90;;;;;;4966720;28;20182;-93
2024/03/31 04:20:52;;;;;;;11.00;4.83;;;11.50;99.90;;;;;;4952504;29;20645;-92
2024/03/31 04:23:18;;;;;;;13.77;6.00;;;11.20;99.90;;;;;;4955674;28;20186;-91
2024/03/31 04:25:43;;;;;;;12.73;5.20;;;12.60;99.90;;;;;;4954354;29;20202;-93
2024/03/31 04:28:09;;;;;;;12.23;5.00;;;11.40;99.90;;;;;;4952976;28;20220;-93
2024/03/31 04:30:44;;;;;;;14.90;5.63;;;9.40;99.90;;;;;;4952417;29;20190;-93
2024/03/31 04:33:10;;;;;;;13.82;5.45;;;12.00;99.90;;;;;;4957159;28;20450;-93
2024/03/31 04:35:40;;;;;;;14.23;5.70;;;10.80;99.90;;;;;;4962545;28;20203;-93
2024/03/31 04:38:06;;;;;;;13.20;5.50;;;10.20;99.90;;;;;;4955296;28;20496;-91
2024/03/31 04:40:32;;;;;;;12.73;5.22;;;10.90;99.90;;;;;;4946109;29;20247;-94
2024/03/31 04:42:58;;;;;;;12.20;5.10;;;12.40;99.90;;;;;;4946027;28;20728;-92
2024/03/31 04:45:24;;;;;;;13.47;4.17;;;;;;;;;;4940867;29;20453;-92
2024/03/31 04:47:50;;;;;;;11.23;4.90;;;10.70;99.90;;;;;;4956474;28;20222;-92
2024/03/31 04:50:16;;;;;;;12.40;4.30;;;;;;;;;;4941578;29;20192;-92
2024/03/31 04:52:42;;;;;;;10.07;4.57;;;10.50;99.90;;;;;;4956754;28;20187;-91
2024/03/31 04:55:08;;;;;;;13.77;5.10;;;;;;;;;;4940258;28;20271;-93
2024/03/31 04:57:34;;;;;;;12.75;4.40;;;10.40;99.90;;;;;;4955307;29;20453;-92
2024/03/31 05:00:00;;;;;;;10.77;4.20;;;;;;;;;;4942934;28;20196;-93
2024/03/31 05:02:25;;;;;;;8.10;4.03;;;10.50;99.90;;;;;;4955294;28;20191;-93
2024/03/31 05:04:51;;;;;;;8.63;4.07;;;;;;;;;;4940982;29;20278;-93
2024/03/31 05:07:18;;;;;;;12.53;4.00;;;10.40;99.90;;;;;;4956388;28;20249;-93
2024/03/31 05:09:44;;;;;;;9.10;3.70;;;11.60;99.90;;;;;;4943009;29;20461;-93
2024/03/31 05:12:09;;;;;;;11.70;4.10;;;10.60;99.90;;;;;;4941434;29;20190;-93
2024/03/31 05:14:35;;;;;;;13.83;4.50;;;;;;;;;;4939954;29;20195;-93
2024/03/31 05:17:03;;;;;;;7.13;4.37;;;10.80;99.90;;;;;;4939364;28;20730;-93
2024/03/31 05:19:29;;;;;;;10.52;4.32;;;9.90;99.90;;;;;;4941800;29;20481;-94
2024/03/31 05:21:54;;;;;;;11.52;4.53;;;12.60;99.90;;;;;;4938599;29;20191;-93
2024/03/31 05:24:21;;;;;;;18.33;4.90;;;11.60;99.90;;;;;;4940084;29;20187;-88
2024/03/31 05:26:47;;;;;;;6.97;4.20;;;11.90;99.90;;;;;;4941234;28;20207;-88
2024/03/31 05:29:17;;;;;;;12.70;5.07;;;10.30;99.90;;;;;;4933825;28;20250;-88
2024/03/31 05:31:43;;;;;;;14.85;4.50;;;11.40;99.90;;;;;;4941196;29;20196;-87
2024/03/31 05:34:08;;;;;;;12.37;4.93;;;10.20;99.90;;;;;;4936656;29;20242;-89
2024/03/31 05:36:34;;;;;;;11.23;4.60;;;11.60;99.90;;;;;;4941663;28;20203;-88
2024/03/31 05:39:00;;;;;;;9.93;4.80;;;11.70;99.90;;;;;;4939835;29;20633;-88
2024/03/31 05:41:26;;;;;;;10.88;4.50;;;12.80;99.90;;;;;;4936896;29;20195;-88
2024/03/31 05:43:51;;;;;;;6.90;3.60;;;12.10;99.90;;;;;;4936990;29;20675;-89
2024/03/31 05:46:18;;;;;;;10.03;4.40;;;12.30;99.90;;;;;;4936698;28;20346;-89
2024/03/31 05:48:43;;;;;;;12.07;4.78;;;11.70;99.90;;;;;;4941193;29;20183;-89
2024/03/31 05:51:09;;;;;;;11.80;4.30;;;11.40;99.90;;;;;;4941848;28;20192;-89
2024/03/31 05:53:34;;;;;;;16.67;5.43;;;10.20;99.90;;;;;;4935439;29;20206;-89
2024/03/31 05:56:01;;;;;;;10.40;4.70;;;10.70;99.90;;;;;;4939669;28;20754;-90
2024/03/31 05:58:27;;;;;;;17.80;4.57;;;10.80;99.90;;;;;;4936236;28;20188;-90
2024/03/31 06:00:53;;;;;;;14.87;4.37;;;10.90;99.90;;;;;;4936782;28;20282;-90
2024/03/31 06:03:18;;;;;;;11.47;4.40;;;10.90;99.90;;;;;;4937729;28;20198;-89
2024/03/31 06:05:53;;;;;;;14.07;5.17;;;11.10;99.90;;;;;;4935069;28;20192;-92
2024/03/31 06:08:21;;;;;;;13.13;4.32;;;13.10;99.90;;;;;;4935148;29;20275;-92
2024/03/31 06:10:46;;;;;;;14.30;4.43;;;11.80;99.90;;;;;;4930030;28;20211;-89
2024/03/31 06:13:12;;;;;;;14.93;5.27;;;12.90;99.90;;;;;;4927693;29;20203;-89
2024/03/31 06:15:40;;;;;;;7.53;4.17;;;;;;;;;;4936108;28;20714;-91
2024/03/31 06:18:12;;;;;;;14.25;6.10;;;11.60;99.90;;;;;;4935898;29;20732;-92
2024/03/31 06:21:21;;;;;;;13.23;5.13;;;11.70;99.90;;;;;;4935311;29;20670;-92
2024/03/31 06:23:47;;;;;;;10.73;4.75;;;11.40;99.90;;;;;;4935367;29;20196;-87
2024/03/31 06:26:12;;;;;;;16.83;5.17;;;11.30;99.90;;;;;;4936501;29;20233;-87
2024/03/31 06:28:38;;;;;;;8.80;4.80;;;11.80;99.90;;;;;;4935366;28;20181;-87
2024/03/31 06:31:07;;;;;;;12.47;5.00;;;12.40;99.90;;;;;;4932669;28;20737;-87
2024/03/31 06:33:34;;;;;;;10.07;5.13;;;12.30;99.90;;;;;;4936559;28;20207;-87
2024/03/31 06:35:59;;;;;;;12.00;5.17;;;12.30;99.90;;;;;;4938060;28;20298;-89
2024/03/31 06:38:25;;;;;;;12.20;4.93;;;12.50;99.90;;;;;;4941890;28;21312;-87
2024/03/31 06:40:50;;;;;;;10.63;4.80;;;12.50;99.90;;;;;;4942403;28;20198;-87
2024/03/31 06:43:16;;;;;;;13.77;5.47;;;12.80;99.90;;;;;;4948558;28;20264;-87
2024/03/31 06:45:41;;;;;;;16.13;5.93;;;12.90;99.90;;;;;;4948967;28;20217;-87
2024/03/31 06:48:07;;;;;;;14.00;4.93;;;12.40;99.90;;;;;;4944975;28;20221;-87
2024/03/31 06:50:32;;;;;;;15.20;5.30;;;12.80;99.90;;;;;;4939704;28;20272;-87
2024/03/31 06:52:58;;;;;;;14.37;5.20;;;13.20;99.90;;;;;;4953904;28;20197;-87
2024/03/31 06:55:23;;;;;;;14.07;4.37;;;13.30;99.90;;;;;;4940094;29;20188;-87
2024/03/31 06:57:49;;;;;;;8.63;4.50;;;13.10;99.90;;;;;;4940125;28;20581;-88
2024/03/31 07:00:15;;;;;;;14.73;4.37;;;13.90;99.90;;;;;;4938925;28;20291;-87
2024/03/31 07:02:40;;;;;;;14.55;5.60;;;13.60;99.90;;;;;;4940694;29;20187;-86
2024/03/31 07:05:06;;;;;;;12.83;4.93;;;13.60;99.90;;;;;;4941921;28;20623;-86
2024/03/31 07:07:31;;;;;;;13.83;4.40;;;13.90;99.90;;;;;;4957142;29;20208;-86
2024/03/31 07:09:57;;;;;;;10.73;4.30;;;15.50;99.90;;;;;;4963150;29;20244;-87
2024/03/31 07:12:23;;;;;;;12.10;4.17;;;16.60;99.90;;;;;;4962302;29;20169;-87
2024/03/31 07:14:48;;;;;;;8.45;4.38;;;18.10;99.90;;;;;;4961768;29;20197;-86
2024/03/31 07:17:14;;;;;;;12.83;5.03;;;19.00;97.60;;;;;;4961564;29;20212;-86
2024/03/31 07:19:39;;;;;;;16.97;5.83;;;19.80;94.50;;;;;;4961833;29;20189;-87
2024/03/31 07:22:05;;;;;;;13.30;4.80;;;20.00;94.30;;;;;;4961727;29;20889;-87
2024/03/31 07:24:31;;;;;;;11.60;4.50;;;20.80;92.50;;;;;;4950807;28;20191;-86
2024/03/31 07:26:56;;;;;;;11.53;5.17;;;20.20;92.40;;;;;;4944933;28;20693;-87
2024/03/31 07:29:22;;;;;;;8.80;4.57;;;20.70;92.20;;;;;;4940976;28;20444;-87
2024/03/31 07:31:47;;;;;;;8.03;4.47;;;21.60;90.70;;;;;;4940849;28;20184;-87
2024/03/31 07:34:13;;;;;;;10.37;3.57;;;23.00;85.10;;;;;;4940153;28;20553;-87
2024/03/31 07:36:38;;;;;;;11.47;4.10;;;23.50;81.50;;;;;;4938042;28;20264;-87
2024/03/31 07:39:04;;;;;;;10.90;3.53;;;24.00;79.80;;;;;;4940160;28;20193;-87
2024/03/31 07:41:29;;;;;;;14.23;4.33;;;23.20;79.10;;;;;;4938488;28;20197;-88
2024/03/31 07:43:55;;;;;;;12.50;5.23;;;24.00;78.20;;;;;;4940309;28;20196;-88
2024/03/31 07:46:20;;;;;;;9.80;3.80;;;25.70;76.10;;;;;;4941323;28;20219;-88
2024/03/31 07:48:46;;;;;;;12.37;4.53;;;25.40;72.70;;;;;;4942296;28;20283;-88
2024/03/31 07:51:11;;;;;;;11.00;4.10;;;27.30;72.00;;;;;;4940398;28;20922;-87
2024/03/31 07:53:37;;;;;;;12.30;3.70;;;26.40;67.80;;;;;;4940743;28;20200;-88
2024/03/31 07:56:02;;;;;;;6.70;3.60;;;26.10;68.50;;;;;;4943937;28;20212;-88
2024/03/31 07:58:28;;;;;;;11.07;4.27;;;25.00;68.20;;;;;;4938731;28;20188;-87
2024/03/31 08:00:55;;;;;;;10.60;4.57;;;24.00;71.30;;;;;;4931897;29;20184;-88
2024/03/31 08:03:21;;;;;;;13.63;4.50;;;23.90;72.40;;;;;;4940384;29;20239;-87
2024/03/31 08:05:47;;;;;;;11.10;4.00;;;23.10;75.70;;;;;;4939744;29;20444;-88
2024/03/31 08:08:12;;;;;;;10.07;5.10;;;23.60;76.20;;;;;;4937934;28;20564;-88
2024/03/31 08:10:41;;;;;;;9.17;3.97;;;24.10;72.80;;;;;;4939534;29;20276;-88
2024/03/31 08:13:06;;;;;;;13.53;3.93;;;24.70;71.50;;;;;;4938757;29;20196;-87
2024/03/31 08:15:32;;;;;;;8.27;4.57;;;24.70;70.00;;;;;;4939296;28;20454;-87
2024/03/31 08:17:57;;;;;;;14.50;3.97;;;24.30;71.40;;;;;;4938878;28;20650;-87
2024/03/31 08:20:23;;;;;;;10.67;4.23;;;22.50;73.60;;;;;;4938914;28;20209;-86
2024/03/31 08:22:48;;;;;;;14.27;4.20;;;22.40;75.50;;;;;;4942172;29;20185;-86
2024/03/31 08:25:14;;;;;;;7.30;3.17;;;24.40;74.20;;;;;;4938726;28;20576;-82
2024/03/31 08:27:39;;;;;;;12.93;3.90;;;25.10;71.20;;;;;;4933589;28;20208;-81
2024/03/31 08:30:05;;;;;;;11.97;4.23;;;26.30;66.00;;;;;;4934256;29;20642;-84
2024/03/31 08:32:31;;;;;;;7.23;3.70;;;26.20;63.20;;;;;;4935078;28;20191;-84
2024/03/31 08:34:56;;;;;;;11.33;4.53;;;26.70;61.40;;;;;;4942619;28;20457;-83
2024/03/31 08:37:22;;;;;;;9.57;3.80;;;26.20;60.10;;;;;;4939057;28;20208;-83
2024/03/31 08:39:47;;;;;;;7.93;3.50;;;26.00;60.30;;;;;;4952999;28;20655;-83
2024/03/31 08:42:30;;;;;;;13.00;3.50;;;26.30;62.20;;;;;;4939733;28;20511;-85
2024/03/31 08:44:57;;;;;;;14.07;3.37;;;24.70;62.60;;;;;;4952988;28;20537;-85
2024/03/31 08:47:29;;;;;;;10.37;3.57;;;25.10;67.30;;;;;;4936922;29;20514;-86
2024/03/31 08:49:56;;;;;;;8.47;3.13;;;23.60;67.90;;;;;;4938959;28;20445;-83
2024/03/31 08:52:21;;;;;;;8.20;2.47;;;23.20;69.20;;;;;;4939829;29;20531;-86
2024/03/31 08:54:49;;;;;;;11.03;3.30;;;22.60;67.90;;;;;;4937163;28;20547;-87
2024/03/31 08:57:15;;;;;;;9.37;2.83;;;23.10;70.50;;;;;;4942881;28;20217;-85
2024/03/31 08:59:40;;;;;;;11.07;3.30;;;23.30;70.60;;;;;;4944287;29;20480;-86
2024/03/31 09:02:11;;;;;;;13.83;3.60;;;23.80;67.20;;;;;;4934690;29;20715;-86
2024/03/31 09:04:36;;;;;;;8.33;3.10;;;23.50;66.40;;;;;;4937636;28;20189;-86
2024/03/31 09:07:02;;;;;;;10.10;3.60;;;23.20;67.60;;;;;;4948258;28;20472;-86
2024/03/31 09:09:27;;;;;;;6.10;2.37;;;22.30;70.50;;;;;;4937860;28;20180;-85
2024/03/31 09:11:53;;;;;;;8.90;3.27;;;22.20;70.70;;;;;;4939077;28;20577;-87
2024/03/31 09:14:19;;;;;;;12.20;3.17;;;22.50;71.10;;;;;;4938892;28;20697;-88
2024/03/31 09:16:48;;;;;;;9.93;2.97;;;22.20;71.80;;;;;;4938215;28;20216;-87
2024/03/31 09:19:14;;;;;;;9.80;3.20;;;21.80;72.80;;;;;;4957951;28;20834;-86
2024/03/31 09:21:45;;;;;;;13.67;3.70;;;21.40;74.30;;;;;;4937613;28;20440;-86
2024/03/31 09:24:11;;;;;;;9.53;3.70;;;22.80;72.70;;;;;;4935273;29;20456;-87
2024/03/31 09:26:37;;;;;;;9.93;3.60;;;23.00;69.40;;;;;;4940820;28;20471;-87
2024/03/31 09:29:03;;;;;;;7.57;3.10;;;22.60;71.20;;;;;;4934804;29;20453;-86
2024/03/31 09:31:28;;;;;;;11.80;4.03;;;22.20;72.10;;;;;;4939276;28;20450;-87
2024/03/31 09:33:54;;;;;;;9.90;2.57;;;23.00;72.60;;;;;;4935296;28;20191;-87
2024/03/31 09:36:19;;;;;;;9.93;3.50;;;22.70;71.00;;;;;;4931127;28;20199;-86
2024/03/31 09:38:45;;;;;;;7.50;2.47;;;22.00;71.10;;;;;;4936629;28;20185;-86
2024/03/31 09:41:11;;;;;;;9.80;2.93;;;22.40;70.80;;;;;;4953459;28;20191;-87
2024/03/31 09:43:38;;;;;;;10.83;2.90;;;22.00;72.20;;;;;;4935306;28;20192;-86
2024/03/31 09:46:06;;;;;;;7.07;2.50;;;22.90;70.70;;;;;;4930410;28;20507;-87
2024/03/31 09:48:35;;;;;;;15.83;3.70;;;22.60;69.20;;;;;;4937676;28;20878;-87
2024/03/31 09:51:11;;;;;;;11.00;3.20;;;22.50;69.60;;;;;;4940253;28;20507;-89
2024/03/31 09:53:40;;;;;;;11.13;3.17;;;22.30;71.20;;;;;;4933141;28;20539;-89
2024/03/31 09:56:07;;;;;;;9.07;3.23;;;22.20;71.00;;;;;;4935835;29;20854;-87
2024/03/31 09:58:35;;;;;;;7.50;2.80;;;22.10;70.40;;;;;;4933247;28;21001;-89
2024/03/31 10:01:06;;;;;;;12.60;3.20;;;22.20;71.30;;;;;;4950375;28;20833;-88
2024/03/31 10:03:35;;;;;;;16.20;3.30;;;22.20;71.70;;;;;;4947697;28;20449;-88
2024/03/31 10:06:01;;;;;;;15.23;3.57;;;24.90;72.80;;;;;;4950530;29;20460;-89
2024/03/31 10:08:29;;;;;;;15.03;3.80;;;22.90;68.20;;;;;;4938484;29;21023;-88
2024/03/31 10:11:00;;;;;;;11.97;3.00;;;22.90;66.40;;;;;;4932827;29;20438;-88
2024/03/31 10:13:26;;;;;;;12.67;3.70;;;23.60;66.50;;;;;;4947536;28;20447;-88
2024/03/31 10:15:56;;;;;;;9.80;2.67;;;24.70;64.20;;;;;;4935669;28;22234;-88
2024/03/31 10:18:24;;;;;;;10.07;3.07;;;25.10;62.40;;;;;;4927307;29;20547;-86
2024/03/31 10:20:50;;;;;;;14.47;3.30;;;24.80;61.50;;;;;;4936849;29;20473;-88
2024/03/31 10:23:18;;;;;;;11.50;3.33;;;24.30;62.60;;;;;;4933386;29;20444;-86
2024/03/31 10:25:45;;;;;;;13.73;3.43;;;23.10;64.20;;;;;;4934683;29;21684;-89
2024/03/31 10:28:16;;;;;;;13.57;3.40;;;23.50;64.00;;;;;;4934921;29;20468;-91
2024/03/31 10:30:42;;;;;;;11.37;3.23;;;23.00;64.80;;;;;;4946917;28;20440;-87
2024/03/31 10:33:10;;;;;;;6.97;3.03;;;23.30;62.90;;;;;;4939515;29;20455;-87
2024/03/31 10:35:38;;;;;;;8.13;2.87;;;23.50;62.00;;;;;;4932391;28;20286;-90
2024/03/31 10:38:04;;;;;;;10.10;2.70;;;23.90;61.40;;;;;;4933935;29;20456;-91
2024/03/31 10:40:31;;;;;;;12.57;2.70;;;24.20;61.50;;;;;;4936731;28;20441;-91
2024/03/31 10:42:59;;;;;;;9.20;3.10;;;23.90;60.70;;;;;;4914627;29;20450;-90
2024/03/31 10:45:25;;;;;;;9.93;3.37;;;24.10;61.80;;;;;;4936548;29;20452;-92
2024/03/31 10:47:51;;;;;;;8.60;2.83;;;23.50;62.80;;;;;;4936861;28;20478;-90
2024/03/31 10:50:25;;;;;;;13.80;2.93;;;23.30;64.10;;;;;;4939683;29;20750;-89
2024/03/31 10:52:51;;;;;;;12.00;2.90;;;23.10;64.40;;;;;;4943822;29;20452;-89
2024/03/31 10:55:18;;;;;;;15.20;3.50;;;23.20;66.60;;;;;;4956503;28;20488;-89
2024/03/31 10:57:44;;;;;;;9.30;3.50;;;22.90;64.30;;;;;;4959510;28;20201;-88
2024/03/31 11:00:17;;;;;;;9.27;2.77;;;22.50;62.80;;;;;;4956669;28;20557;-89
2024/03/31 11:02:42;;;;;;;11.10;4.20;;;22.10;62.60;;;;;;4957849;28;20177;-90
2024/03/31 11:05:11;;;;;;;17.00;3.13;;;21.70;63.30;;;;;;4959894;28;20450;-89
2024/03/31 11:07:44;;;;;;;14.80;3.70;;;22.10;64.50;;;;;;4960351;29;20211;-90
2024/03/31 11:10:11;;;;;;;9.48;3.63;;;21.20;64.60;;;;;;4960031;28;20436;-89
2024/03/31 11:12:41;;;;;;;7.72;2.97;;;20.90;65.70;;;;;;4960416;28;20178;-90
2024/03/31 11:15:10;;;;;;;15.70;3.13;;;21.00;66.60;;;;;;4942682;29;20197;-90
2024/03/31 11:17:36;;;;;;;11.57;3.60;;;20.80;67.10;;;;;;4952036;29;20212;-91
2024/03/31 11:20:04;;;;;;;10.87;3.00;;;20.80;67.80;;;;;;4959645;28;20215;-90
2024/03/31 11:22:30;;;;;;;12.30;2.67;;;20.20;68.50;;;;;;4957090;28;20480;-91
2024/03/31 11:24:57;;;;;;;7.25;2.80;;;20.40;70.20;;;;;;4960931;28;20189;-88
2024/03/31 11:27:23;;;;;;;12.68;3.88;;;20.10;70.60;;;;;;4959611;28;20213;-89
2024/03/31 11:29:49;;;;;;;14.30;3.27;;;19.30;70.40;;;;;;4950028;29;20186;-88
2024/03/31 11:32:18;;;;;;;11.75;2.65;;;19.90;71.90;;;;;;4947176;29;20456;-89
2024/03/31 11:34:48;;;;;;;13.48;3.47;;;19.40;71.50;;;;;;4938654;29;20636;-89
2024/03/31 11:37:16;;;;;;;9.15;2.72;;;19.90;72.10;;;;;;4938919;29;20219;-90
2024/03/31 11:39:42;;;;;;;18.02;3.35;;;19.90;71.50;;;;;;4936009;28;20187;-90
2024/03/31 11:42:09;;;;;;;9.02;2.45;;;19.90;71.40;;;;;;4940616;29;20193;-91
2024/03/31 11:44:36;;;;;;;9.98;3.45;;;19.90;71.50;;;;;;4937229;29;20292;-91
2024/03/31 11:47:03;;;;;;;10.00;3.00;;;20.00;71.50;;;;;;4936910;29;20231;-91
2024/03/31 11:49:29;;;;;;;7.03;3.10;;;20.00;70.50;;;;;;4939416;29;20271;-90
2024/03/31 11:51:56;;;;;;;9.85;2.88;;;21.00;70.00;;;;;;4937881;29;20189;-91
2024/03/31 11:54:22;;;;;;;9.00;2.70;;;21.60;66.80;;;;;;4938502;28;20201;-90
2024/03/31 11:56:47;;;;;;;19.50;3.37;;;22.00;66.80;;;;;;4938706;29;20827;-90
2024/03/31 11:59:18;;;;;;;9.20;3.27;;;22.80;65.20;;;;;;4938177;29;20189;-89
2024/03/31 12:01:44;;;;;;;9.13;3.40;;;22.60;64.10;;;;;;4937646;29;20192;-91
2024/03/31 12:04:16;;;;;;;12.90;3.40;;;23.00;63.00;;;;;;4938578;28;20440;-91
2024/03/31 12:06:43;;;;;;;10.93;2.80;;;23.00;62.60;;;;;;4940902;28;20471;-91
2024/03/31 12:09:09;;;;;;;6.10;2.30;;;22.40;63.50;;;;;;4939897;29;20441;-91
2024/03/31 12:11:36;;;;;;;10.27;3.20;;;22.00;64.90;;;;;;4936038;29;20433;-91
2024/03/31 12:14:02;;;;;;;13.70;3.43;;;21.70;65.70;;;;;;4937208;29;21035;-90
2024/03/31 12:16:28;;;;;;;10.07;2.90;;;21.50;67.00;;;;;;4958956;28;20523;-90
2024/03/31 12:18:53;;;;;;;9.93;2.80;;;21.30;67.50;;;;;;4955487;28;20519;-90
2024/03/31 12:21:20;;;;;;;13.00;3.53;;;21.20;68.50;;;;;;4942133;28;20189;-90
2024/03/31 12:23:47;;;;;;;10.63;2.83;;;21.50;69.20;;;;;;4938410;28;20192;-91
2024/03/31 12:26:14;;;;;;;9.07;2.78;;;21.30;68.80;;;;;;4941163;29;20468;-91
2024/03/31 12:28:40;;;;;;;11.75;2.42;;;23.30;71.60;;;;;;4957422;28;20180;-91
2024/03/31 12:31:06;;;;;;;11.93;2.78;;;20.90;69.70;;;;;;4938888;28;20234;-90
2024/03/31 12:33:32;;;;;;;13.60;3.33;;;20.30;68.80;;;;;;4941231;29;20181;-91
2024/03/31 12:35:59;;;;;;;9.52;2.83;;;21.00;69.60;;;;;;4939448;28;20219;-91
2024/03/31 12:38:28;;;;;;;7.82;3.15;;;21.20;69.80;;;;;;4939314;29;20193;-90
2024/03/31 12:40:57;;;;;;;10.77;3.22;;;21.30;69.20;;;;;;4937815;28;20200;-90